Time;durP1;ratioP1;P1;durP2;ratioP2;P2;SDS_P1;SDS_P2;PMS_P1;PMS_P2;Temp;Humidity;BMP_temperature;BMP_pressure;BME280_temperature;BME280_humidity;BME280_pressure;Samples;Min_cycle;Max_cycle;Signal;HPM_P1;HPM_P2
2024/01/20 00:00:16;;;;;;;6.40;4.63;;;-1.10;68.20;;;-2.37;72.95;98984.63;5111955;27;21017;-70
2024/01/20 00:02:46;;;;;;;12.80;6.10;;;-1.10;68.20;;;-2.37;73.42;98984.63;5144015;27;20468;-70
2024/01/20 00:05:15;;;;;;;5.70;4.87;;;-1.10;68.30;;;-2.36;73.13;98988.94;5139954;27;20475;-71
2024/01/20 00:07:42;;;;;;;8.13;5.30;;;-1.10;68.20;;;-2.46;73.14;98993.22;5135977;27;20477;-70
2024/01/20 00:10:11;;;;;;;7.03;4.87;;;-1.20;68.20;;;-2.59;73.97;98988.78;5101488;27;21128;-71
2024/01/20 00:12:38;;;;;;;9.50;4.90;;;-1.20;68.20;;;-2.58;73.94;98990.47;5138070;27;20446;-69
2024/01/20 00:15:15;;;;;;;7.77;4.90;;;-1.20;68.30;;;-2.56;73.31;99000.97;5118339;27;20450;-71
2024/01/20 00:17:42;;;;;;;9.33;5.17;;;-1.20;68.10;;;-2.67;72.99;99000.88;5138613;27;20464;-70
2024/01/20 00:20:10;;;;;;;9.87;5.60;;;-1.30;68.00;;;-2.62;73.89;98999.59;5145526;27;20458;-69
2024/01/20 00:22:40;;;;;;;7.50;5.07;;;-1.30;68.40;;;-2.49;73.90;99014.63;5123126;27;20437;-70
2024/01/20 00:25:09;;;;;;;8.70;5.20;;;-1.20;68.50;;;-2.56;73.55;99020.31;5147797;27;21225;-70
2024/01/20 00:27:36;;;;;;;9.03;5.50;;;-1.20;68.30;;;-2.66;73.90;99019.25;5131419;27;21258;-70
2024/01/20 00:30:04;;;;;;;8.63;5.30;;;-1.30;68.30;;;-2.44;74.07;99023.06;5148078;27;20441;-69
2024/01/20 00:32:32;;;;;;;8.63;5.63;;;-1.20;68.60;;;-2.64;73.78;98982.97;5142195;27;20479;-70
2024/01/20 00:35:00;;;;;;;9.23;5.80;;;-1.20;68.70;;;-2.37;74.26;99029.63;5129050;27;20441;-70
2024/01/20 00:37:27;;;;;;;5.20;4.70;;;-1.10;69.00;;;-2.31;74.60;99029.19;5145881;27;20450;-71
2024/01/20 00:39:56;;;;;;;7.03;4.90;;;-1.00;69.30;;;-2.29;73.56;99027.28;5145897;27;20458;-71
2024/01/20 00:42:24;;;;;;;14.57;5.73;;;-1.10;68.80;;;-2.37;73.41;99024.31;5127197;27;20449;-69
2024/01/20 00:44:51;;;;;;;6.60;4.97;;;-1.10;68.30;;;-2.36;73.79;99022.53;5141977;27;20479;-71
2024/01/20 00:47:19;;;;;;;7.13;5.10;;;-1.10;68.50;;;-2.49;73.69;99019.91;5116476;27;20438;-71
2024/01/20 00:49:47;;;;;;;5.70;4.80;;;-1.10;68.40;;;-2.41;73.61;99014.91;5138170;27;20481;-70
2024/01/20 00:52:16;;;;;;;9.73;5.70;;;-1.10;68.60;;;-2.33;73.05;99019.66;5138493;27;20463;-70
2024/01/20 00:54:44;;;;;;;5.67;4.73;;;-1.10;68.40;;;-2.47;73.17;99029.41;5139269;27;20452;-69
2024/01/20 00:57:15;;;;;;;6.70;5.33;;;-1.20;68.10;;;-2.49;73.50;99026.03;5125861;27;20510;-70
2024/01/20 00:59:45;;;;;;;6.70;5.00;;;-1.20;68.40;;;-2.37;73.76;99028.78;5124852;27;20468;-71
2024/01/20 01:02:12;;;;;;;10.70;4.90;;;-1.20;68.70;;;-2.60;73.36;99008.28;5108634;27;20446;-69
2024/01/20 01:04:39;;;;;;;7.50;4.50;;;-1.20;68.50;;;-2.83;73.80;99036.31;5141232;27;20892;-69
2024/01/20 01:07:07;;;;;;;7.60;5.63;;;-1.40;67.80;;;-2.74;74.63;99053.34;5138675;27;20453;-70
2024/01/20 01:09:34;;;;;;;5.53;4.67;;;-1.50;68.20;;;-2.79;74.45;99056.31;5141292;27;20798;-71
2024/01/20 01:12:01;;;;;;;8.20;5.53;;;-1.40;68.30;;;-2.65;73.58;99063.31;5114467;27;20459;-69
2024/01/20 01:14:31;;;;;;;8.20;6.07;;;-1.40;68.40;;;-2.51;74.12;99040.31;5127767;27;20464;-71
2024/01/20 01:16:59;;;;;;;8.43;4.73;;;-1.30;68.70;;;-2.72;73.49;99051.44;5126853;27;20864;-70
2024/01/20 01:19:27;;;;;;;6.23;5.10;;;-1.30;68.20;;;-2.78;73.84;99051.88;5145655;27;20472;-69
2024/01/20 01:21:54;;;;;;;11.00;5.60;;;-1.40;68.30;;;-2.83;74.38;99043.41;5127004;27;20449;-68
2024/01/20 01:24:21;;;;;;;8.37;5.60;;;-1.50;68.60;;;-2.74;75.21;99037.47;5140684;27;20484;-69
2024/01/20 01:26:49;;;;;;;10.37;5.13;;;-1.40;68.90;;;-2.95;75.02;99050.38;5138340;27;20468;-69
2024/01/20 01:29:17;;;;;;;9.00;5.70;;;-1.50;68.50;;;-2.83;75.36;99048.69;5118512;27;20477;-69
2024/01/20 01:31:47;;;;;;;7.07;5.20;;;-1.50;68.90;;;-3.07;74.39;99050.25;5137692;27;20460;-71
2024/01/20 01:34:19;;;;;;;5.80;5.20;;;-1.60;68.30;;;-3.12;74.22;99039.13;5132383;27;20456;-70
2024/01/20 01:36:47;;;;;;;8.03;5.77;;;-1.70;68.40;;;-2.99;74.67;99055.00;5121568;27;20550;-70
2024/01/20 01:39:16;;;;;;;11.00;5.80;;;-1.70;68.70;;;-2.96;74.68;99052.16;5141427;27;20486;-70
2024/01/20 01:41:44;;;;;;;8.87;5.97;;;-1.70;68.70;;;-2.69;75.06;99063.63;5112496;27;20457;-69
2024/01/20 01:44:12;;;;;;;15.70;6.77;;;-1.60;69.50;;;-2.63;74.86;99064.06;5124374;27;20481;-69
2024/01/20 01:46:41;;;;;;;9.63;7.10;;;-1.50;69.20;;;-2.64;74.65;99069.44;5142301;27;20459;-69
2024/01/20 01:49:11;;;;;;;8.60;5.53;;;-1.40;68.90;;;-2.63;74.88;99072.00;5141866;27;20441;-68
2024/01/20 01:51:39;;;;;;;6.87;5.90;;;-1.30;68.90;;;-2.65;74.33;99086.28;5145640;27;20670;-68
2024/01/20 01:54:09;;;;;;;9.80;5.70;;;-1.30;68.80;;;-2.68;74.35;99086.50;5121340;27;20457;-70
2024/01/20 01:56:36;;;;;;;7.30;6.20;;;-1.40;68.50;;;-2.89;74.12;99082.53;5123985;27;20568;-69
2024/01/20 01:59:04;;;;;;;10.40;7.87;;;-1.50;68.40;;;-2.86;74.91;99090.28;5123915;27;20466;-68
2024/01/20 02:01:31;;;;;;;10.70;7.67;;;-1.50;68.70;;;-2.87;75.78;99095.69;5122488;27;20545;-69
2024/01/20 02:03:59;;;;;;;10.10;8.03;;;-1.50;69.00;;;-3.08;75.52;99092.66;5134330;27;20522;-70
2024/01/20 02:06:28;;;;;;;12.30;6.87;;;-1.60;68.60;;;-3.11;75.48;99098.13;5130898;27;20441;-70
2024/01/20 02:08:57;;;;;;;11.73;6.67;;;-1.70;68.80;;;-3.03;75.41;99091.41;5140102;27;20456;-70
2024/01/20 02:11:25;;;;;;;9.90;7.93;;;-1.70;68.90;;;-3.16;75.69;99096.66;5131577;27;20448;-70
2024/01/20 02:13:53;;;;;;;11.40;7.73;;;-1.70;68.70;;;-3.03;74.94;99079.97;5122920;27;21013;-68
2024/01/20 02:16:20;;;;;;;16.40;8.70;;;-1.70;68.90;;;-3.08;75.71;99085.56;5121984;27;20449;-69
2024/01/20 02:18:48;;;;;;;11.90;8.47;;;-1.70;68.90;;;-2.86;75.09;99082.34;5123582;27;21253;-68
2024/01/20 02:21:15;;;;;;;16.23;7.30;;;-1.60;69.10;;;-2.87;74.43;99085.09;5136318;27;20454;-69
2024/01/20 02:23:47;;;;;;;10.63;8.20;;;-1.60;68.70;;;-2.96;74.36;99080.41;5139214;27;20449;-69
2024/01/20 02:26:15;;;;;;;12.20;8.53;;;-1.60;68.70;;;-3.01;74.32;99089.50;5151294;27;20449;-69
2024/01/20 02:28:42;;;;;;;13.97;8.63;;;-1.60;68.60;;;-3.05;74.66;99076.59;5143943;27;20457;-68
2024/01/20 02:31:09;;;;;;;12.20;8.83;;;-1.70;68.30;;;-3.06;75.11;99085.47;5144144;27;20453;-69
2024/01/20 02:33:36;;;;;;;13.13;8.80;;;-1.70;68.50;;;-3.04;75.33;99083.56;5123453;27;20482;-71
2024/01/20 02:36:05;;;;;;;15.13;9.30;;;-1.70;68.80;;;-3.50;75.48;98992.31;5123630;27;20453;-70
2024/01/20 02:38:32;;;;;;;14.17;9.00;;;-1.70;69.20;;;-3.08;75.00;99076.81;5128028;27;20441;-69
2024/01/20 02:41:01;;;;;;;13.10;9.00;;;-1.70;69.00;;;-2.91;75.06;99089.75;5127396;27;20510;-70
2024/01/20 02:43:28;;;;;;;17.70;8.53;;;-1.70;69.00;;;-2.92;74.65;99082.75;5133143;27;20456;-71
2024/01/20 02:45:56;;;;;;;12.40;8.57;;;-1.60;68.90;;;-3.20;75.16;99083.72;5148396;27;20968;-69
2024/01/20 02:48:24;;;;;;;15.17;9.60;;;-1.80;68.60;;;-3.22;75.92;99078.56;5127921;27;21030;-70
2024/01/20 02:50:52;;;;;;;14.40;8.80;;;-1.90;68.80;;;-3.37;76.18;99079.56;5124380;27;20815;-70
2024/01/20 02:53:19;;;;;;;12.90;9.03;;;-2.00;68.70;;;-3.42;76.89;99080.69;5125571;27;20459;-69
2024/01/20 02:55:46;;;;;;;13.30;9.87;;;-2.00;69.20;;;-3.19;76.20;99081.00;5148829;27;20445;-70
2024/01/20 02:58:15;;;;;;;14.93;9.47;;;-2.00;69.40;;;-3.25;76.29;99065.56;5143862;27;20540;-70
2024/01/20 03:00:42;;;;;;;13.83;8.50;;;-1.90;69.20;;;-3.25;75.85;99077.91;5147066;27;20456;-71
2024/01/20 03:03:10;;;;;;;12.90;8.97;;;-1.90;69.20;;;-3.24;76.54;99088.41;5103267;27;20449;-71
2024/01/20 03:05:37;;;;;;;11.97;8.17;;;-1.90;69.30;;;-3.32;76.52;99080.97;5145825;27;20473;-71
2024/01/20 03:08:04;;;;;;;11.93;8.50;;;-2.00;69.40;;;-3.23;76.04;99078.66;5136316;27;20509;-71
2024/01/20 03:10:32;;;;;;;11.47;9.40;;;-1.90;69.60;;;-3.30;76.68;99080.84;5141404;27;20778;-70
2024/01/20 03:12:59;;;;;;;15.13;9.40;;;-2.00;69.40;;;-3.16;76.51;99080.78;5126893;27;20461;-69
2024/01/20 03:15:28;;;;;;;17.10;10.83;;;-1.90;69.60;;;-3.15;77.20;99086.94;5127814;27;20463;-70
2024/01/20 03:17:57;;;;;;;14.80;10.20;;;-1.90;69.90;;;-3.16;76.96;99091.38;5149429;27;20448;-69
2024/01/20 03:20:25;;;;;;;17.33;11.00;;;-1.90;69.70;;;-3.01;76.37;99096.59;5131394;27;20835;-70
2024/01/20 03:22:52;;;;;;;15.70;10.17;;;-1.80;69.90;;;-3.12;76.04;99086.72;5127835;27;20443;-71
2024/01/20 03:25:19;;;;;;;16.60;12.20;;;-1.80;69.50;;;-3.04;76.58;99080.94;5148707;27;20472;-70
2024/01/20 03:27:49;;;;;;;16.03;10.07;;;-1.80;69.70;;;-2.94;76.66;99087.31;5146012;27;20800;-68
2024/01/20 03:30:17;;;;;;;17.70;10.77;;;-1.70;70.20;;;-3.04;76.45;99094.16;5129227;27;20961;-70
2024/01/20 03:32:46;;;;;;;17.83;11.73;;;-1.70;69.60;;;-3.09;76.22;99104.19;5138654;27;20843;-70
2024/01/20 03:35:14;;;;;;;17.30;11.07;;;-1.70;69.70;;;-3.09;76.93;99110.31;5131811;27;20449;-70
2024/01/20 03:37:41;;;;;;;15.40;10.60;;;-1.70;69.90;;;-3.11;76.80;99121.94;5138677;27;20465;-71
2024/01/20 03:40:10;;;;;;;18.00;10.90;;;-1.80;69.80;;;-3.10;76.58;99126.31;5147066;27;21022;-70
2024/01/20 03:42:37;;;;;;;18.63;11.20;;;-1.80;69.90;;;-3.16;77.63;99119.63;5145985;27;20828;-69
2024/01/20 03:45:05;;;;;;;25.50;12.47;;;-1.90;70.00;;;-3.05;77.59;99113.63;5147439;27;20477;-69
2024/01/20 03:47:33;;;;;;;16.77;11.17;;;-1.80;70.30;;;-3.01;76.84;99112.44;5141457;27;20960;-70
2024/01/20 03:50:03;;;;;;;21.63;12.33;;;-1.70;70.20;;;-2.95;76.89;99109.41;5115342;27;20954;-70
2024/01/20 03:52:30;;;;;;;15.80;12.10;;;-1.70;70.30;;;-3.30;76.86;99105.50;5137735;27;20503;-71
2024/01/20 03:55:00;;;;;;;17.50;12.10;;;-1.80;69.70;;;-3.37;77.08;99087.50;5127424;27;21270;-68
2024/01/20 03:57:27;;;;;;;16.03;11.67;;;-1.90;69.90;;;-3.32;77.58;99111.81;5120230;27;20448;-69
2024/01/20 03:59:54;;;;;;;16.23;10.53;;;-1.90;70.00;;;-3.59;77.96;99102.09;5106758;27;20449;-72
2024/01/20 04:02:21;;;;;;;19.50;11.73;;;-2.10;69.90;;;-3.36;77.84;99119.09;5140263;27;20465;-70
2024/01/20 04:04:49;;;;;;;17.70;10.90;;;-2.10;70.20;;;-3.42;77.84;99116.88;5123674;27;20515;-70
2024/01/20 04:07:18;;;;;;;16.07;10.90;;;-2.10;70.30;;;-3.42;77.32;99120.34;5129271;27;20526;-70
2024/01/20 04:09:45;;;;;;;18.07;12.03;;;-2.00;70.30;;;-3.58;78.23;99114.34;5143703;27;20450;-69
2024/01/20 04:12:12;;;;;;;20.30;11.67;;;-2.20;70.20;;;-3.91;78.86;99116.41;5139224;27;20480;-70
2024/01/20 04:14:40;;;;;;;17.37;11.80;;;-2.40;70.10;;;-4.29;79.57;99061.56;5092103;27;20453;-70
2024/01/20 04:17:08;;;;;;;16.43;10.53;;;-2.50;70.40;;;-3.99;79.32;99113.38;5125003;27;20888;-70
2024/01/20 04:19:35;;;;;;;17.63;12.10;;;-2.50;70.80;;;-4.10;80.14;99118.47;5136844;27;20480;-70
2024/01/20 04:22:02;;;;;;;17.00;11.17;;;-2.60;71.00;;;-3.95;79.92;99129.91;5119330;27;20469;-70
2024/01/20 04:24:32;;;;;;;17.10;11.23;;;-2.60;71.30;;;-4.02;79.84;99125.00;5127510;27;20548;-70
2024/01/20 04:27:00;;;;;;;16.40;10.07;;;-2.60;71.20;;;-3.92;79.54;99124.41;5134746;27;20466;-68
2024/01/20 04:29:30;;;;;;;19.33;10.83;;;-2.60;71.40;;;-3.78;79.43;99120.94;5142315;27;20457;-70
2024/01/20 04:31:58;;;;;;;16.53;11.13;;;-2.50;71.70;;;-3.95;79.79;99124.63;5136490;27;20450;-70
2024/01/20 04:34:25;;;;;;;15.90;10.30;;;-2.60;71.40;;;-3.99;80.07;99130.09;5121019;27;20809;-69
2024/01/20 04:36:53;;;;;;;16.40;9.77;;;-2.60;71.60;;;-4.08;80.42;99138.56;5116245;27;20790;-68
2024/01/20 04:39:20;;;;;;;16.10;10.17;;;-2.70;71.50;;;-4.04;80.23;99132.16;5122116;27;20446;-71
2024/01/20 04:41:49;;;;;;;18.67;9.83;;;-2.70;71.80;;;-3.90;80.00;99139.22;5148029;27;20460;-70
2024/01/20 04:44:17;;;;;;;13.17;10.10;;;-2.60;71.60;;;-3.82;79.77;99141.41;5125810;27;20985;-69
2024/01/20 04:46:45;;;;;;;16.13;11.00;;;-2.50;71.70;;;-4.02;80.06;99155.84;5117818;27;21006;-69
2024/01/20 04:49:12;;;;;;;12.77;9.00;;;-2.60;71.50;;;-4.16;79.75;99161.97;5144499;27;20507;-69
2024/01/20 04:51:39;;;;;;;11.23;8.30;;;-2.70;71.40;;;-4.06;79.28;99156.97;5121087;27;20449;-70
2024/01/20 04:54:06;;;;;;;13.57;9.40;;;-2.60;71.30;;;-4.09;79.75;99168.56;5128260;27;20510;-69
2024/01/20 04:56:38;;;;;;;13.60;9.20;;;-2.70;71.50;;;-4.20;80.29;99169.22;5139887;27;20446;-70
2024/01/20 04:59:07;;;;;;;13.70;10.63;;;-2.70;71.50;;;-4.15;80.65;99187.44;5145015;27;20465;-70
2024/01/20 05:01:34;;;;;;;13.27;10.40;;;-2.70;71.90;;;-4.07;80.25;99185.16;5139407;27;20465;-70
2024/01/20 05:04:01;;;;;;;14.23;9.97;;;-2.70;71.90;;;-4.00;80.06;99197.06;5127650;27;20509;-70
2024/01/20 05:06:28;;;;;;;14.77;10.87;;;-2.60;71.90;;;-4.10;79.93;99177.41;5121893;27;20474;-71
2024/01/20 05:08:57;;;;;;;17.60;11.00;;;-2.60;71.60;;;-3.99;80.15;99187.31;5139223;27;20452;-70
2024/01/20 05:11:24;;;;;;;17.07;10.10;;;-2.50;71.80;;;-4.02;80.14;99184.88;5145695;27;20449;-70
2024/01/20 05:13:52;;;;;;;15.97;9.90;;;-2.60;71.60;;;-3.92;79.44;99193.06;5128662;27;20898;-69
2024/01/20 05:16:21;;;;;;;17.20;10.90;;;-2.50;71.70;;;-4.04;79.83;99215.81;5130954;27;20449;-68
2024/01/20 05:18:48;;;;;;;16.43;11.40;;;-2.50;71.40;;;-3.92;80.43;99203.66;5137712;27;20458;-70
2024/01/20 05:21:16;;;;;;;15.00;10.80;;;-2.60;71.70;;;-3.92;79.44;99199.22;5140988;27;20560;-69
2024/01/20 05:23:45;;;;;;;18.30;10.60;;;-2.50;71.80;;;-3.78;79.51;99206.28;5123914;27;20790;-70
2024/01/20 05:26:12;;;;;;;13.67;9.60;;;-2.50;71.90;;;-3.71;79.43;99197.06;5123867;27;20480;-70
2024/01/20 05:28:39;;;;;;;17.63;11.10;;;-2.40;71.60;;;-3.66;79.09;99193.25;5139422;27;20453;-69
2024/01/20 05:31:08;;;;;;;19.13;11.73;;;-2.40;71.70;;;-3.68;80.25;99205.72;5126646;27;20455;-70
2024/01/20 05:33:37;;;;;;;16.40;11.37;;;-2.40;72.00;;;-4.29;79.22;99109.94;5139022;27;20454;-70
2024/01/20 05:36:07;;;;;;;15.60;10.30;;;-2.40;71.70;;;-3.66;79.26;99214.41;5124563;27;20537;-69
2024/01/20 05:38:34;;;;;;;17.10;11.23;;;-2.40;71.80;;;-3.71;78.32;99202.34;5121121;27;21203;-71
2024/01/20 05:41:02;;;;;;;17.80;11.57;;;-2.30;71.40;;;-3.71;79.37;99210.25;5116781;27;20462;-69
2024/01/20 05:43:29;;;;;;;18.67;11.20;;;-2.30;71.60;;;-3.64;78.84;99217.78;5121166;27;20661;-69
2024/01/20 05:45:56;;;;;;;15.47;10.40;;;-2.30;71.50;;;-3.82;79.33;99220.63;5136908;27;20469;-69
2024/01/20 05:48:24;;;;;;;14.23;9.57;;;-2.40;71.40;;;-4.02;80.74;99222.72;5128912;27;20929;-72
2024/01/20 05:50:53;;;;;;;15.80;11.70;;;-2.50;71.60;;;-4.03;80.33;99223.63;5145423;27;20449;-70
2024/01/20 05:53:22;;;;;;;16.13;10.53;;;-2.50;71.80;;;-3.92;79.55;99228.28;5140736;27;20449;-71
2024/01/20 05:55:49;;;;;;;18.17;10.53;;;-2.50;71.70;;;-4.11;80.54;99225.88;5142671;27;20449;-69
2024/01/20 05:58:16;;;;;;;15.33;9.83;;;-2.60;71.60;;;-4.67;80.50;99150.00;5122091;27;20466;-69
2024/01/20 06:00:47;;;;;;;17.10;10.53;;;-2.70;71.50;;;-4.05;80.00;99241.34;5127328;27;20945;-68
2024/01/20 06:03:15;;;;;;;14.45;10.05;;;-2.70;71.60;;;-4.13;80.12;99248.91;5129866;27;20540;-69
2024/01/20 06:05:42;;;;;;;13.27;9.40;;;-2.60;71.60;;;-4.28;80.60;99245.34;5107497;27;20226;-69
2024/01/20 06:08:11;;;;;;;12.43;9.77;;;-2.70;71.60;;;-4.17;80.53;99248.22;5145577;27;20444;-70
2024/01/20 06:10:39;;;;;;;16.83;9.60;;;-2.80;72.00;;;-4.17;81.53;99248.22;5140052;27;20457;-68
2024/01/20 06:13:06;;;;;;;15.50;11.07;;;-2.80;72.30;;;-4.61;81.07;99180.44;5126450;27;20453;-68
2024/01/20 06:15:33;;;;;;;15.88;10.45;;;-2.70;72.30;;;-3.97;81.08;99264.66;5120710;27;20498;-68
2024/01/20 06:18:01;;;;;;;13.93;10.10;;;-2.70;72.80;;;-3.93;81.23;99260.03;5119806;27;20196;-70
2024/01/20 06:20:29;;;;;;;17.03;10.83;;;-2.60;72.90;;;-3.71;80.53;99267.50;5128113;27;20545;-72
2024/01/20 06:22:56;;;;;;;15.87;11.00;;;-2.50;72.90;;;-3.66;80.32;99272.53;5144167;27;20453;-69
2024/01/20 06:25:25;;;;;;;15.40;10.30;;;-2.50;72.60;;;-3.63;79.56;99269.69;5119909;27;21333;-69
2024/01/20 06:27:53;;;;;;;20.90;10.20;;;-2.40;72.40;;;-3.97;79.85;99269.09;5136034;27;20457;-69
2024/01/20 06:30:20;;;;;;;16.40;12.03;;;-2.50;71.80;;;-3.84;80.76;99270.06;5141844;27;20452;-70
2024/01/20 06:32:48;;;;;;;13.90;10.93;;;-2.50;72.70;;;-3.92;80.54;99272.31;5137501;27;20799;-69
2024/01/20 06:35:15;;;;;;;13.97;10.67;;;-2.50;72.30;;;-3.99;80.30;99271.81;5125646;27;20464;-70
2024/01/20 06:37:44;;;;;;;19.53;11.33;;;-2.60;71.90;;;-3.96;81.30;99265.50;5114442;27;20499;-71
2024/01/20 06:40:12;;;;;;;16.67;11.47;;;-2.60;72.20;;;-3.73;80.48;99266.75;5120559;27;20488;-75
2024/01/20 06:42:43;;;;;;;14.97;9.70;;;-2.40;72.70;;;-3.71;79.45;99264.88;5140934;27;20450;-71
2024/01/20 06:45:11;;;;;;;15.87;10.70;;;-2.30;72.20;;;-3.67;79.36;99276.94;5102033;27;21029;-68
2024/01/20 06:47:38;;;;;;;16.60;11.00;;;-2.30;72.30;;;-3.65;79.72;99275.06;5098673;27;20486;-69
2024/01/20 06:50:08;;;;;;;16.10;9.83;;;-2.30;71.90;;;-3.70;79.62;99270.06;5136943;27;20929;-70
2024/01/20 06:52:35;;;;;;;15.47;10.00;;;-2.40;71.80;;;-3.99;80.05;99272.69;5138805;27;20534;-69
2024/01/20 06:55:02;;;;;;;18.17;11.13;;;-2.50;71.60;;;-4.06;80.34;99281.91;5138159;27;20528;-70
2024/01/20 06:57:30;;;;;;;15.70;9.60;;;-2.50;71.80;;;-3.80;80.17;99279.50;5124242;27;20540;-70
2024/01/20 07:00:00;;;;;;;14.97;10.30;;;-2.40;72.40;;;-3.64;79.98;99291.78;5140998;27;20467;-69
2024/01/20 07:02:30;;;;;;;19.57;11.23;;;-2.30;72.40;;;-3.78;79.69;99289.97;5137897;27;20463;-69
2024/01/20 07:04:58;;;;;;;14.93;9.80;;;-2.40;71.70;;;-3.82;79.56;99294.59;5146459;27;20526;-68
2024/01/20 07:07:28;;;;;;;14.50;10.50;;;-2.40;71.80;;;-4.03;80.04;99294.91;5125289;27;20548;-72
2024/01/20 07:09:57;;;;;;;17.00;11.17;;;-2.50;71.60;;;-4.04;80.42;99316.97;5143840;27;20460;-84
2024/01/20 07:12:25;;;;;;;17.87;10.40;;;-2.60;71.80;;;-4.05;79.89;99310.00;5139676;27;20471;-72
2024/01/20 07:14:52;;;;;;;13.60;11.00;;;-2.60;71.70;;;-3.94;80.02;99306.75;5127761;27;20450;-71
2024/01/20 07:17:23;;;;;;;13.47;9.47;;;-2.60;72.10;;;-4.20;80.33;99300.34;5140012;27;20456;-72
2024/01/20 07:19:52;;;;;;;15.30;10.57;;;-2.70;72.00;;;-4.21;81.25;99311.84;5146445;27;20441;-72
2024/01/20 07:22:19;;;;;;;17.90;10.40;;;-2.80;72.40;;;-4.28;81.00;99309.56;5150217;27;20960;-72
2024/01/20 07:24:47;;;;;;;15.20;10.60;;;-2.80;72.30;;;-4.25;81.72;99302.41;5124381;27;21007;-72
2024/01/20 07:27:15;;;;;;;14.17;9.10;;;-2.80;72.70;;;-4.10;81.76;99325.28;5140931;27;20480;-74
2024/01/20 07:29:42;;;;;;;20.23;10.43;;;-2.80;72.90;;;-4.37;81.01;99320.66;5143150;27;20461;-71
2024/01/20 07:32:11;;;;;;;15.67;10.90;;;-2.80;72.20;;;-4.50;82.22;99315.22;5127507;27;20439;-71
2024/01/20 07:34:40;;;;;;;19.00;10.77;;;-2.90;72.60;;;-4.37;82.16;99317.16;5140629;27;20447;-72
2024/01/20 07:37:08;;;;;;;15.53;10.87;;;-3.00;72.80;;;-4.27;82.24;99315.69;5121527;27;20442;-71
2024/01/20 07:39:37;;;;;;;14.60;10.70;;;-2.90;73.10;;;-4.38;81.96;99313.66;5127696;27;20902;-72
2024/01/20 07:42:05;;;;;;;15.70;10.90;;;-2.90;73.10;;;-4.33;82.16;99322.16;5143152;27;20449;-70
2024/01/20 07:44:32;;;;;;;21.67;11.67;;;-2.90;73.10;;;-4.32;82.33;99323.88;5117335;27;20444;-71
2024/01/20 07:47:02;;;;;;;17.10;10.95;;;-2.90;73.20;;;-4.24;82.01;99336.66;5140991;27;20478;-73
2024/01/20 07:49:33;;;;;;;17.23;10.70;;;-2.90;73.20;;;-4.35;82.23;99334.59;5142415;27;20199;-73
2024/01/20 07:52:03;;;;;;;20.10;11.70;;;-2.90;73.20;;;-4.16;81.75;99328.28;5118247;27;20449;-71
2024/01/20 07:54:32;;;;;;;18.60;10.47;;;-2.90;73.40;;;-4.15;81.93;99332.63;5120510;27;20635;-71
2024/01/20 07:56:59;;;;;;;15.27;10.53;;;-2.80;73.40;;;-4.00;81.55;99339.63;5142678;27;20443;-71
2024/01/20 07:59:29;;;;;;;19.50;10.70;;;-2.80;73.50;;;-3.97;81.69;99343.88;5143919;27;20460;-71
2024/01/20 08:01:57;;;;;;;24.00;13.00;;;-2.70;73.50;;;-4.06;81.54;99339.97;5141220;27;20530;-70
2024/01/20 08:04:25;;;;;;;16.80;11.37;;;-2.70;73.30;;;-3.98;81.69;99347.44;5112188;27;21013;-70
2024/01/20 08:06:52;;;;;;;17.50;11.50;;;-2.60;73.50;;;-3.86;81.48;99351.19;5122398;27;20643;-71
2024/01/20 08:09:21;;;;;;;25.13;12.63;;;-2.50;73.20;;;-3.67;80.77;99350.09;5141043;27;20456;-72
2024/01/20 08:11:49;;;;;;;15.13;10.50;;;-2.40;73.00;;;-3.73;80.43;99333.63;5147067;27;20509;-70
2024/01/20 08:14:17;;;;;;;23.73;12.67;;;-2.30;72.80;;;-3.71;80.56;99350.28;5121614;27;21308;-71
2024/01/20 08:16:44;;;;;;;16.63;11.23;;;-2.20;72.60;;;-3.59;80.93;99350.47;5142566;27;20457;-71
2024/01/20 08:19:12;;;;;;;15.53;10.23;;;-2.30;72.80;;;-3.34;79.44;99367.47;5143886;27;20457;-72
2024/01/20 08:21:40;;;;;;;16.53;11.30;;;-2.10;72.70;;;-3.02;78.30;99362.00;5122165;27;20453;-70
2024/01/20 08:24:08;;;;;;;18.77;11.07;;;-1.90;72.50;;;-2.90;78.13;99361.25;5143526;27;20456;-70
2024/01/20 08:26:37;;;;;;;21.40;11.97;;;-1.70;72.20;;;-2.91;77.87;99370.13;5147009;27;20484;-72
2024/01/20 08:29:07;;;;;;;19.00;10.80;;;-1.60;72.30;;;-2.61;81.23;99362.97;5138808;27;20445;-71
2024/01/20 08:31:34;;;;;;;15.70;11.17;;;-1.40;75.50;;;-2.61;78.76;99363.84;5138122;27;20464;-73
2024/01/20 08:34:03;;;;;;;20.07;11.60;;;-1.40;72.90;;;-2.74;77.33;99366.41;5130095;27;20468;-71
2024/01/20 08:36:31;;;;;;;14.30;10.23;;;-1.40;71.90;;;-2.95;77.06;99368.63;5149393;27;20449;-74
2024/01/20 08:38:58;;;;;;;16.70;10.47;;;-1.50;71.20;;;-2.80;76.43;99358.84;5122222;27;20449;-76
2024/01/20 08:41:26;;;;;;;17.03;10.27;;;-1.50;71.00;;;-3.02;76.28;99357.56;5128458;27;20454;-75
2024/01/20 08:44:02;;;;;;;20.80;12.63;;;-1.50;70.90;;;-3.16;78.18;99366.34;5139139;27;21193;-75
2024/01/20 08:46:30;;;;;;;18.80;12.13;;;-1.70;71.40;;;-2.99;78.11;99377.66;5124358;27;20485;-72
2024/01/20 08:48:58;;;;;;;19.97;13.40;;;-1.70;71.50;;;-2.98;78.09;99371.44;5134854;27;20455;-76
2024/01/20 08:51:25;;;;;;;20.33;12.20;;;-1.70;71.90;;;-2.92;77.92;99379.00;5134222;27;20456;-69
2024/01/20 08:53:53;;;;;;;18.77;12.40;;;-1.60;71.90;;;-3.01;78.17;99380.44;5141387;27;20450;-71
2024/01/20 08:56:23;;;;;;;17.70;11.33;;;-1.60;71.70;;;-3.07;78.10;99372.03;5136811;27;20572;-77
2024/01/20 08:58:51;;;;;;;22.87;13.00;;;-1.70;71.60;;;-3.07;78.23;99372.84;5143834;27;20445;-73
2024/01/20 09:01:22;;;;;;;17.70;12.53;;;-1.70;71.80;;;-3.33;78.51;99371.81;5141176;27;20458;-71
2024/01/20 09:03:51;;;;;;;15.80;12.00;;;-1.80;71.60;;;-3.34;79.64;99380.69;5128260;27;20441;-74
2024/01/20 09:06:19;;;;;;;17.00;11.50;;;-1.90;72.20;;;-3.53;79.43;99336.91;5133458;27;20466;-71
2024/01/20 09:08:49;;;;;;;17.23;12.40;;;-1.90;72.20;;;-2.95;78.44;99384.50;5138773;27;21038;-71
2024/01/20 09:11:17;;;;;;;21.50;12.50;;;-1.80;72.50;;;-3.19;79.46;99385.06;5131707;27;20446;-69
2024/01/20 09:13:47;;;;;;;20.30;12.53;;;-1.80;72.20;;;-3.26;79.83;99386.38;5147503;27;20945;-69
2024/01/20 09:16:15;;;;;;;24.07;13.40;;;-1.90;72.40;;;-3.35;80.22;99382.47;5141593;27;20442;-70
2024/01/20 09:18:43;;;;;;;21.60;15.67;;;-2.00;72.40;;;-3.28;80.33;99393.53;5135431;27;20461;-69
2024/01/20 09:21:11;;;;;;;18.67;12.57;;;-1.90;72.70;;;-3.48;81.38;99385.03;5136432;27;20530;-69
2024/01/20 09:23:39;;;;;;;24.37;15.73;;;-2.10;73.00;;;-3.54;81.53;99361.63;5118334;27;20460;-69
2024/01/20 09:26:06;;;;;;;20.70;13.17;;;-2.00;73.30;;;-3.19;81.02;99392.97;5121040;27;20457;-69
2024/01/20 09:28:33;;;;;;;18.57;11.93;;;-1.80;73.50;;;-2.96;79.69;99398.63;5134876;27;21009;-70
2024/01/20 09:31:03;;;;;;;18.23;13.20;;;-1.70;73.30;;;-2.89;79.15;99394.69;5122760;27;20942;-69
2024/01/20 09:33:30;;;;;;;21.50;13.63;;;-1.60;72.80;;;-2.96;79.37;99395.16;5136549;27;20452;-69
2024/01/20 09:36:02;;;;;;;18.53;13.07;;;-1.60;72.40;;;-3.22;79.96;99402.88;5122281;27;20449;-69
2024/01/20 09:38:29;;;;;;;21.93;12.83;;;-1.70;72.40;;;-3.15;80.14;99407.72;5136403;27;20441;-70
2024/01/20 09:40:59;;;;;;;19.23;13.50;;;-1.70;72.80;;;-3.10;80.57;99402.16;5102385;27;20500;-69
2024/01/20 09:43:28;;;;;;;21.53;13.10;;;-1.70;73.10;;;-3.24;80.32;99358.06;5105671;27;21044;-70
2024/01/20 09:46:00;;;;;;;20.70;13.33;;;-1.60;73.20;;;-3.23;79.73;99343.03;5117301;27;20455;-70
2024/01/20 09:48:28;;;;;;;22.60;13.27;;;-1.50;73.30;;;-2.93;80.32;99418.75;5141710;27;20485;-70
2024/01/20 09:50:56;;;;;;;17.13;12.27;;;-1.50;72.90;;;-2.87;79.83;99423.69;5135373;27;20458;-70
2024/01/20 09:53:26;;;;;;;23.40;15.90;;;-1.50;72.90;;;-3.21;80.03;99363.16;5115220;27;20485;-70
2024/01/20 09:55:56;;;;;;;18.97;13.80;;;-1.60;72.90;;;-2.72;79.66;99432.47;5116897;27;20485;-70
2024/01/20 09:58:28;;;;;;;21.10;14.27;;;-1.50;73.20;;;-2.79;79.53;99420.56;5133460;27;20458;-70
2024/01/20 10:00:57;;;;;;;21.20;13.50;;;-1.50;73.10;;;-2.79;79.91;99426.69;5133220;27;20448;-69
2024/01/20 10:03:28;;;;;;;22.60;13.18;;;-1.50;73.00;;;-2.66;79.81;99436.53;5134519;27;20454;-70
2024/01/20 10:05:57;;;;;;;18.50;11.90;;;-1.40;73.10;;;-2.52;79.03;99435.63;5123307;27;20245;-70
2024/01/20 10:08:26;;;;;;;18.00;12.63;;;-1.30;72.90;;;-2.59;79.60;99443.97;5104071;28;20484;-70
2024/01/20 10:11:03;;;;;;;23.30;13.10;;;-1.30;72.80;;;-2.49;78.76;99438.94;5119278;27;20449;-69
2024/01/20 10:13:31;;;;;;;20.70;13.17;;;-1.20;72.70;;;-2.38;78.67;99432.97;5125556;27;20452;-69